createdAt,value
2022-10-15T00:01:10.932Z,3.90
2022-10-15T00:03:38.859Z,4.80
2022-10-15T00:09:02.203Z,4.53
2022-10-15T00:11:29.507Z,4.35
2022-10-15T00:13:58.363Z,4.88
2022-10-15T00:16:27.148Z,4.97
2022-10-15T00:18:57.391Z,4.68
2022-10-15T00:21:23.991Z,4.93
2022-10-15T00:23:50.702Z,5.30
2022-10-15T00:26:21.749Z,6.05
2022-10-15T00:28:50.769Z,5.22
2022-10-15T00:31:21.206Z,4.95
2022-10-15T00:33:49.661Z,4.90
2022-10-15T00:36:18.787Z,5.38
2022-10-15T00:38:45.628Z,4.78
2022-10-15T00:41:18.247Z,4.93
2022-10-15T00:43:47.880Z,5.88
2022-10-15T00:46:26.575Z,4.95
2022-10-15T00:49:00.698Z,5.50
2022-10-15T00:51:33.053Z,6.20
2022-10-15T00:54:00.699Z,6.05
2022-10-15T00:56:29.835Z,6.38
2022-10-15T00:58:57.266Z,5.68
2022-10-15T01:04:18.697Z,6.07
2022-10-15T01:06:46.212Z,6.45
2022-10-15T01:09:13.737Z,7.15
2022-10-15T01:11:52.033Z,6.90
2022-10-15T01:14:36.601Z,7.22
2022-10-15T01:17:20.366Z,7.07
2022-10-15T01:20:18.751Z,6.20
2022-10-15T01:23:28.278Z,5.90
2022-10-15T01:26:36.012Z,7.20
2022-10-15T01:29:14.348Z,7.32
2022-10-15T01:32:01.227Z,6.88
2022-10-15T01:34:31.337Z,7.32
2022-10-15T01:37:12.895Z,7.47
2022-10-15T01:39:44.729Z,8.02
2022-10-15T01:42:24.607Z,7.03
2022-10-15T01:44:56.254Z,6.43
2022-10-15T01:47:48.709Z,7.10
2022-10-15T01:50:19.077Z,7.75
2022-10-15T01:52:46.145Z,8.80
2022-10-15T01:55:15.230Z,8.60
2022-10-15T01:57:44.877Z,8.07
2022-10-15T02:00:12.214Z,8.82
2022-10-15T02:02:38.783Z,7.88
2022-10-15T02:05:09.085Z,8.75
2022-10-15T02:08:07.050Z,7.40
2022-10-15T02:10:52.152Z,7.80
2022-10-15T02:13:29.839Z,8.48
2022-10-15T02:16:18.115Z,8.02
2022-10-15T02:19:05.909Z,8.05
2022-10-15T02:21:43.449Z,7.32
2022-10-15T02:24:17.779Z,8.32
2022-10-15T02:26:45.195Z,8.98
2022-10-15T02:31:46.562Z,9.48
2022-10-15T02:34:20.745Z,8.73
2022-10-15T02:36:48.839Z,8.00
2022-10-15T02:39:21.160Z,8.15
2022-10-15T02:41:48.363Z,9.15
2022-10-15T02:44:14.927Z,8.50
2022-10-15T02:46:41.491Z,8.85
2022-10-15T02:49:10.396Z,8.73
2022-10-15T02:51:37.379Z,10.32
2022-10-15T02:54:05.925Z,8.45
2022-10-15T02:56:32.905Z,8.68
2022-10-15T02:58:59.444Z,9.70
2022-10-15T03:01:26.100Z,8.52
2022-10-15T03:03:52.715Z,9.43
2022-10-15T03:06:19.370Z,9.52
2022-10-15T03:08:45.909Z,8.73
2022-10-15T03:11:12.665Z,8.82
2022-10-15T03:13:40.900Z,9.23
2022-10-15T03:16:12.008Z,10.07
2022-10-15T03:18:40.689Z,9.10
2022-10-15T03:21:07.877Z,10.68
2022-10-15T03:23:34.619Z,9.00
2022-10-15T03:26:01.320Z,9.45
2022-10-15T03:28:27.906Z,9.85
2022-10-15T03:33:45.294Z,8.50
2022-10-15T03:36:11.846Z,8.20
2022-10-15T03:38:38.434Z,8.48
2022-10-15T03:41:05.159Z,8.88
2022-10-15T03:43:31.706Z,8.25
2022-10-15T03:46:02.465Z,7.28
2022-10-15T03:48:29.512Z,8.15
2022-10-15T03:50:56.525Z,7.40
2022-10-15T03:56:15.000Z,6.97
2022-10-15T03:58:41.620Z,8.93
2022-10-15T04:01:12.971Z,7.47
2022-10-15T04:03:40.107Z,7.28
2022-10-15T04:06:07.296Z,8.25
2022-10-15T04:08:34.119Z,8.00
2022-10-15T04:11:00.752Z,7.13
2022-10-15T04:13:28.500Z,7.43
2022-10-15T04:15:55.678Z,7.65
2022-10-15T04:18:22.674Z,7.35
2022-10-15T04:20:49.600Z,7.75
2022-10-15T04:23:17.238Z,7.32
2022-10-15T04:25:43.964Z,7.90
2022-10-15T04:28:10.511Z,7.57
2022-10-15T04:30:37.112Z,8.00
2022-10-15T04:33:03.719Z,7.57
2022-10-15T04:35:30.279Z,6.82
2022-10-15T04:37:59.437Z,7.03
2022-10-15T04:40:26.128Z,7.65
2022-10-15T04:42:52.689Z,7.10
2022-10-15T04:45:19.577Z,7.40
2022-10-15T04:47:46.128Z,8.18
2022-10-15T04:50:12.756Z,7.85
2022-10-15T04:52:39.708Z,6.97
2022-10-15T04:55:06.792Z,7.38
2022-10-15T05:00:24.195Z,6.57
2022-10-15T05:02:50.763Z,7.50
2022-10-15T05:05:17.312Z,7.55
2022-10-15T05:07:43.893Z,7.43
2022-10-15T05:10:10.457Z,8.05
2022-10-15T05:12:38.042Z,8.50
2022-10-15T05:15:04.914Z,8.43
2022-10-15T05:17:31.416Z,8.02
2022-10-15T05:19:57.949Z,8.95
2022-10-15T05:22:24.839Z,8.70
2022-10-15T05:24:51.635Z,8.98
2022-10-15T05:27:18.180Z,8.27
2022-10-15T05:29:45.257Z,8.38
2022-10-15T05:32:13.428Z,8.32
2022-10-15T05:34:39.985Z,8.48
2022-10-15T05:37:06.948Z,10.25
2022-10-15T05:39:33.475Z,9.40
2022-10-15T05:42:00.005Z,8.70
2022-10-15T05:44:26.617Z,8.88
2022-10-15T05:46:53.142Z,8.90
2022-10-15T05:49:19.811Z,9.80
2022-10-15T05:51:46.341Z,11.13
2022-10-15T05:54:12.985Z,8.68
2022-10-15T05:56:39.561Z,9.63
2022-10-15T05:59:06.106Z,8.63
2022-10-15T06:01:32.634Z,10.27
2022-10-15T06:03:59.140Z,7.78
2022-10-15T06:06:26.453Z,11.23
2022-10-15T06:08:54.209Z,9.27
2022-10-15T06:14:12.074Z,9.35
2022-10-15T06:16:38.660Z,9.25
2022-10-15T06:19:05.369Z,9.68
2022-10-15T06:21:31.980Z,9.27
2022-10-15T06:23:58.557Z,8.88
2022-10-15T06:26:25.065Z,8.93
2022-10-15T06:28:51.601Z,9.68
2022-10-15T06:31:18.313Z,10.38
2022-10-15T06:33:44.847Z,12.32
2022-10-15T06:36:13.896Z,9.75
2022-10-15T06:38:40.523Z,10.05
2022-10-15T06:41:08.101Z,9.85
2022-10-15T06:43:35.749Z,9.63
2022-10-15T06:46:04.072Z,9.45
2022-10-15T06:48:30.692Z,9.60
2022-10-15T06:50:59.680Z,11.23
2022-10-15T06:53:26.578Z,9.32
2022-10-15T06:55:57.978Z,8.98
2022-10-15T06:58:24.612Z,9.70
2022-10-15T07:00:51.190Z,12.23
2022-10-15T07:03:17.790Z,11.18
2022-10-15T07:05:44.332Z,11.23
2022-10-15T07:08:14.158Z,11.30
2022-10-15T07:10:43.249Z,10.70
2022-10-15T07:13:09.784Z,11.18
2022-10-15T07:15:36.361Z,10.57
2022-10-15T07:18:03.205Z,12.65
2022-10-15T07:20:33.545Z,11.57
2022-10-15T07:23:02.240Z,10.30
2022-10-15T07:25:29.136Z,10.43
2022-10-15T07:27:56.602Z,10.32
2022-10-15T07:30:27.286Z,9.98
2022-10-15T07:32:56.744Z,10.35
2022-10-15T07:35:23.629Z,9.88
2022-10-15T07:37:50.711Z,10.32
2022-10-15T07:40:19.045Z,9.65
2022-10-15T07:42:51.867Z,9.52
2022-10-15T07:45:18.437Z,10.35
2022-10-15T07:47:44.940Z,9.35
2022-10-15T07:50:11.460Z,10.63
2022-10-15T07:52:38.016Z,10.73
2022-10-15T07:55:06.037Z,12.43
2022-10-15T07:57:32.604Z,11.50
2022-10-15T07:59:59.373Z,10.43
2022-10-15T08:02:26.388Z,11.70
2022-10-15T08:04:53.486Z,11.30
2022-10-15T08:07:20.029Z,9.85
2022-10-15T08:12:18.194Z,10.02
2022-10-15T08:14:44.800Z,9.70
2022-10-15T08:17:11.681Z,9.45
2022-10-15T08:19:38.796Z,9.45
2022-10-15T08:22:05.556Z,9.30
2022-10-15T08:24:32.245Z,10.20
2022-10-15T08:26:58.832Z,9.43
2022-10-15T08:29:25.376Z,9.40
2022-10-15T08:31:51.927Z,10.43
2022-10-15T08:34:18.453Z,8.82
2022-10-15T08:36:45.015Z,9.30
2022-10-15T08:39:11.663Z,10.95
2022-10-15T08:41:49.829Z,8.90
2022-10-15T08:44:21.716Z,9.55
2022-10-15T08:46:53.937Z,8.73
2022-10-15T08:49:29.571Z,9.32
2022-10-15T08:52:14.676Z,8.00
2022-10-15T08:54:41.277Z,7.65
2022-10-15T08:57:35.942Z,8.32
2022-10-15T09:00:11.161Z,8.45
2022-10-15T09:02:47.917Z,8.23
2022-10-15T09:05:25.923Z,8.15
2022-10-15T09:08:03.808Z,7.22
2022-10-15T09:10:59.571Z,8.93
2022-10-15T09:13:30.415Z,9.00
2022-10-15T09:16:17.887Z,8.82
2022-10-15T09:18:47.912Z,8.75
2022-10-15T09:21:15.372Z,8.02
2022-10-15T09:23:45.180Z,8.63
2022-10-15T09:26:25.245Z,7.95
2022-10-15T09:29:03.811Z,8.85
2022-10-15T09:31:41.425Z,7.07
2022-10-15T09:34:35.392Z,6.80
2022-10-15T09:37:11.280Z,6.90
2022-10-15T09:40:13.407Z,8.48
2022-10-15T09:42:42.461Z,8.25
2022-10-15T09:45:15.659Z,7.43
2022-10-15T09:47:43.641Z,8.88
2022-10-15T09:50:13.028Z,7.82
2022-10-15T09:53:05.531Z,8.80
2022-10-15T09:58:53.772Z,7.93
2022-10-15T10:01:22.901Z,7.80
2022-10-15T10:04:11.532Z,8.30
2022-10-15T10:06:53.874Z,7.63
2022-10-15T10:09:45.197Z,7.25
2022-10-15T10:12:22.111Z,7.65
2022-10-15T10:14:57.949Z,7.13
2022-10-15T10:17:29.094Z,9.60
2022-10-15T10:20:18.591Z,8.30
2022-10-15T10:22:52.607Z,7.55
2022-10-15T10:25:43.553Z,8.00
2022-10-15T10:28:11.520Z,7.72
2022-10-15T10:30:51.503Z,6.78
2022-10-15T10:33:28.738Z,7.53
2022-10-15T10:35:56.840Z,7.32
2022-10-15T10:38:36.121Z,6.40
2022-10-15T10:41:09.927Z,5.90
2022-10-15T10:43:39.428Z,6.85
2022-10-15T10:46:18.520Z,7.40
2022-10-15T10:48:53.184Z,6.70
2022-10-15T10:51:22.940Z,7.68
2022-10-15T10:53:55.688Z,6.95
2022-10-15T10:56:43.803Z,6.07
2022-10-15T10:59:19.326Z,6.22
2022-10-15T11:01:47.021Z,5.90
2022-10-15T11:04:25.698Z,6.00
2022-10-15T11:07:13.024Z,5.95
2022-10-15T11:09:56.068Z,4.72
2022-10-15T11:12:41.372Z,5.93
2022-10-15T11:15:29.456Z,4.50
2022-10-15T11:18:07.059Z,5.20
2022-10-15T11:20:56.409Z,4.88
2022-10-15T11:23:58.876Z,4.80
2022-10-15T11:26:52.488Z,4.25
2022-10-15T11:29:31.481Z,4.53
2022-10-15T11:32:14.763Z,4.38
2022-10-15T11:35:40.825Z,3.70
2022-10-15T11:38:31.567Z,3.95
2022-10-15T11:41:35.699Z,3.70
2022-10-15T11:44:21.195Z,3.10
2022-10-15T11:47:16.760Z,3.28
2022-10-15T11:49:49.163Z,2.78
2022-10-15T11:52:53.344Z,2.50
2022-10-15T11:55:31.624Z,1.85
2022-10-15T11:58:01.177Z,2.58
2022-10-15T12:00:41.450Z,2.40
2022-10-15T12:03:25.842Z,2.10
2022-10-15T12:05:58.095Z,1.95
2022-10-15T12:08:30.065Z,2.17
2022-10-15T12:11:18.324Z,2.42
2022-10-15T12:14:14.451Z,2.30
2022-10-15T12:16:56.150Z,1.60
2022-10-15T12:19:32.520Z,2.10
2022-10-15T12:21:59.003Z,2.20
2022-10-15T12:24:47.639Z,2.30
2022-10-15T12:27:20.081Z,1.98
2022-10-15T12:29:48.333Z,2.03
2022-10-15T12:32:26.793Z,1.88
2022-10-15T12:34:57.829Z,2.55
2022-10-15T12:37:31.787Z,2.40
2022-10-15T12:40:22.657Z,2.55
2022-10-15T12:42:59.461Z,2.40
2022-10-15T12:45:41.369Z,2.03
2022-10-15T12:48:21.845Z,1.98
2022-10-15T12:50:48.529Z,1.90
2022-10-15T12:53:34.912Z,2.20
2022-10-15T12:56:19.204Z,2.00
2022-10-15T12:58:53.537Z,2.50
2022-10-15T13:01:20.497Z,1.88
2022-10-15T13:03:52.943Z,2.10
2022-10-15T13:06:22.902Z,2.28
2022-10-15T13:09:12.061Z,2.40
2022-10-15T13:11:48.105Z,2.05
2022-10-15T13:14:20.363Z,1.80
2022-10-15T13:16:48.658Z,2.22
2022-10-15T13:22:33.139Z,2.60
2022-10-15T13:25:00.260Z,2.60
2022-10-15T13:27:37.330Z,2.55
2022-10-15T13:30:15.096Z,2.28
2022-10-15T13:32:55.780Z,2.50
2022-10-15T13:35:28.056Z,2.85
2022-10-15T13:37:56.667Z,2.55
2022-10-15T13:40:29.166Z,2.60
2022-10-15T13:43:06.631Z,2.88
2022-10-15T13:45:34.359Z,2.85
2022-10-15T13:48:00.936Z,3.00
2022-10-15T13:50:34.775Z,2.80
2022-10-15T13:53:31.884Z,2.25
2022-10-15T13:56:01.226Z,2.38
2022-10-15T13:58:30.410Z,2.20
2022-10-15T14:01:15.644Z,2.42
2022-10-15T14:03:49.799Z,2.40
2022-10-15T14:06:31.245Z,2.72
2022-10-15T14:09:12.177Z,3.08
2022-10-15T14:11:39.857Z,3.45
2022-10-15T14:14:33.567Z,3.67
2022-10-15T14:17:04.133Z,3.45
2022-10-15T14:19:32.473Z,3.42
2022-10-15T14:22:00.675Z,3.63
2022-10-15T14:24:32.961Z,2.65
2022-10-15T14:27:25.017Z,3.78
2022-10-15T14:29:58.906Z,3.88
2022-10-15T14:32:46.516Z,3.05
2022-10-15T14:35:30.909Z,4.40
2022-10-15T14:38:15.202Z,4.13
2022-10-15T14:40:55.970Z,4.22
2022-10-15T14:43:32.068Z,3.97
2022-10-15T14:46:01.568Z,3.88
2022-10-15T14:48:38.683Z,3.65
2022-10-15T14:51:12.704Z,4.03
2022-10-15T14:53:45.213Z,4.13
2022-10-15T14:56:22.544Z,4.15
2022-10-15T14:58:56.539Z,4.28
2022-10-15T15:01:23.961Z,4.18
2022-10-15T15:03:55.784Z,3.83
2022-10-15T15:06:22.774Z,4.85
2022-10-15T15:08:49.332Z,5.30
2022-10-15T15:11:22.349Z,5.10
2022-10-15T15:13:49.812Z,5.28
2022-10-15T15:16:17.482Z,4.50
2022-10-15T15:18:46.179Z,4.90
2022-10-15T15:21:22.059Z,5.22
2022-10-15T15:23:48.925Z,5.80
2022-10-15T15:26:15.684Z,5.63
2022-10-15T15:28:42.410Z,5.65
2022-10-15T15:31:16.135Z,5.35
2022-10-15T15:33:42.841Z,5.38
2022-10-15T15:36:17.661Z,5.75
2022-10-15T15:38:49.774Z,5.07
2022-10-15T15:41:17.394Z,5.00
2022-10-15T15:43:44.347Z,5.55
2022-10-15T15:46:11.069Z,7.20
2022-10-15T15:48:38.441Z,5.90
2022-10-15T15:51:17.042Z,5.35
2022-10-15T15:53:43.576Z,5.47
2022-10-15T15:56:10.106Z,5.70
2022-10-15T15:58:36.691Z,5.88
2022-10-15T16:01:03.592Z,5.32
2022-10-15T16:03:30.140Z,5.70
2022-10-15T16:05:56.925Z,5.60
2022-10-15T16:08:23.531Z,5.88
2022-10-15T16:10:50.090Z,5.63
2022-10-15T16:13:16.839Z,4.93
2022-10-15T16:15:43.383Z,5.72
2022-10-15T16:18:10.632Z,5.50
2022-10-15T16:20:39.656Z,5.32
2022-10-15T16:23:06.199Z,6.40
2022-10-15T16:25:32.803Z,4.78
2022-10-15T16:28:01.928Z,5.40
2022-10-15T16:30:28.776Z,5.03
2022-10-15T16:32:55.581Z,6.30
2022-10-15T16:38:13.944Z,5.22
2022-10-15T16:40:40.479Z,4.95
2022-10-15T16:43:07.353Z,5.40
2022-10-15T16:45:34.004Z,5.85
2022-10-15T16:48:00.547Z,6.03
2022-10-15T16:50:52.980Z,6.20
2022-10-15T16:53:19.491Z,4.95
2022-10-15T16:55:46.018Z,6.20
2022-10-15T16:58:12.523Z,5.80
2022-10-15T17:03:12.203Z,5.40
2022-10-15T17:05:38.708Z,5.15
2022-10-15T17:08:05.883Z,4.90
2022-10-15T17:10:32.422Z,5.15
2022-10-15T17:12:59.115Z,4.53
2022-10-15T17:15:25.776Z,4.60
2022-10-15T17:17:52.297Z,4.80
2022-10-15T17:20:18.873Z,4.18
2022-10-15T17:22:45.384Z,4.45
2022-10-15T17:25:11.920Z,5.22
2022-10-15T17:27:38.496Z,4.85
2022-10-15T17:30:05.732Z,4.53
2022-10-15T17:32:32.519Z,5.43
2022-10-15T17:35:03.459Z,4.32
2022-10-15T17:37:30.835Z,4.13
2022-10-15T17:39:58.156Z,4.18
2022-10-15T17:42:25.212Z,4.10
2022-10-15T17:44:52.049Z,3.83
2022-10-15T17:47:18.576Z,4.40
2022-10-15T17:49:45.256Z,3.75
2022-10-15T17:52:12.707Z,4.00
2022-10-15T17:54:39.385Z,4.35
2022-10-15T17:57:06.301Z,4.53
2022-10-15T17:59:32.829Z,4.68
2022-10-15T18:02:00.794Z,4.30
2022-10-15T18:04:30.857Z,4.30
2022-10-15T18:06:57.651Z,3.70
2022-10-15T18:09:26.095Z,4.72
2022-10-15T18:11:52.727Z,3.58
2022-10-15T18:16:50.729Z,3.92
2022-10-15T18:19:17.292Z,3.58
2022-10-15T18:21:48.556Z,3.47
2022-10-15T18:24:19.066Z,3.45
2022-10-15T18:26:45.609Z,3.38
2022-10-15T18:29:12.140Z,3.30
2022-10-15T18:31:38.755Z,3.33
2022-10-15T18:34:05.336Z,3.38
2022-10-15T18:36:31.952Z,2.75
2022-10-15T18:38:59.279Z,2.88
2022-10-15T18:41:28.828Z,3.30
2022-10-15T18:44:00.330Z,3.17
2022-10-15T18:46:28.178Z,3.50
2022-10-15T18:48:54.833Z,3.58
2022-10-15T18:51:21.913Z,3.53
2022-10-15T18:53:48.649Z,2.92
2022-10-15T18:56:15.229Z,2.80
2022-10-15T18:58:45.424Z,2.55
2022-10-15T19:01:33.570Z,3.60
2022-10-15T19:04:05.662Z,2.75
2022-10-15T19:06:35.857Z,3.15
2022-10-15T19:09:04.748Z,2.42
2022-10-15T19:11:32.266Z,2.55
2022-10-15T19:14:00.585Z,2.70
2022-10-15T19:19:21.308Z,2.65
2022-10-15T19:21:49.854Z,2.83
2022-10-15T19:24:18.349Z,2.13
2022-10-15T19:26:45.136Z,2.45
2022-10-15T19:29:13.258Z,2.83
2022-10-15T19:31:42.375Z,3.17
2022-10-15T19:34:09.523Z,2.88
2022-10-15T19:36:39.431Z,2.35
2022-10-15T19:39:09.573Z,2.90
2022-10-15T19:41:40.665Z,2.03
2022-10-15T19:44:08.307Z,3.17
2022-10-15T19:46:36.416Z,2.83
2022-10-15T19:49:03.276Z,3.38
2022-10-15T19:51:31.040Z,3.20
2022-10-15T19:53:59.930Z,3.65
2022-10-15T19:56:27.331Z,3.10
2022-10-15T19:58:58.682Z,3.00
2022-10-15T20:01:26.327Z,3.13
2022-10-15T20:03:53.085Z,2.80
2022-10-15T20:06:20.903Z,3.20
2022-10-15T20:08:48.004Z,3.60
2022-10-15T20:11:14.847Z,3.28
2022-10-15T20:13:41.399Z,3.03
2022-10-15T20:16:11.332Z,3.45
2022-10-15T20:18:37.889Z,3.25
2022-10-15T20:21:09.712Z,3.08
2022-10-15T20:23:41.077Z,3.20
2022-10-15T20:26:09.828Z,3.60
2022-10-15T20:28:38.248Z,4.20
2022-10-15T20:31:06.873Z,3.50
2022-10-15T20:33:33.459Z,3.60
2022-10-15T20:36:21.204Z,4.03
2022-10-15T20:38:50.183Z,3.53
2022-10-15T20:41:17.670Z,3.30
2022-10-15T20:43:45.723Z,3.38
2022-10-15T20:46:16.562Z,3.63
2022-10-15T20:48:44.755Z,3.70
2022-10-15T20:51:13.473Z,3.80
2022-10-15T20:53:40.868Z,3.50
2022-10-15T20:56:07.760Z,4.18
2022-10-15T20:58:34.411Z,3.70
2022-10-15T21:01:04.352Z,3.88
2022-10-15T21:03:31.120Z,4.15
2022-10-15T21:05:57.712Z,4.45
2022-10-15T21:08:24.532Z,3.95
2022-10-15T21:10:51.077Z,4.13
2022-10-15T21:13:17.619Z,3.63
2022-10-15T21:15:44.184Z,4.18
2022-10-15T21:18:10.796Z,2.90
2022-10-15T21:20:37.334Z,3.20
2022-10-15T21:23:03.889Z,3.53
2022-10-15T21:25:30.758Z,3.50
2022-10-15T21:27:57.308Z,3.28
2022-10-15T21:30:23.990Z,3.00
2022-10-15T21:32:50.638Z,2.88
2022-10-15T21:35:17.203Z,3.60
2022-10-15T21:37:43.919Z,3.35
2022-10-15T21:40:11.893Z,3.03
2022-10-15T21:42:38.468Z,3.17
2022-10-15T21:45:05.421Z,2.85
2022-10-15T21:47:32.475Z,2.88
2022-10-15T21:49:59.078Z,3.30
2022-10-15T21:52:25.624Z,3.35
2022-10-15T21:54:52.199Z,2.75
2022-10-15T21:57:18.722Z,3.33
2022-10-15T21:59:45.276Z,3.05
2022-10-15T22:02:11.902Z,3.38
2022-10-15T22:04:38.611Z,3.03
2022-10-15T22:07:08.751Z,3.92
2022-10-15T22:09:35.996Z,3.30
2022-10-15T22:12:02.520Z,3.33
2022-10-15T22:14:29.036Z,3.00
2022-10-15T22:16:55.551Z,3.20
2022-10-15T22:25:05.281Z,3.15
2022-10-15T22:27:32.278Z,3.22
2022-10-15T22:29:58.798Z,3.15
2022-10-15T22:32:25.559Z,2.92
2022-10-15T22:34:52.254Z,4.10
2022-10-15T22:37:18.807Z,3.90
2022-10-15T22:39:45.479Z,4.22
2022-10-15T22:42:12.073Z,3.97
2022-10-15T22:44:38.639Z,3.38
2022-10-15T22:47:05.339Z,3.35
2022-10-15T22:49:31.893Z,3.80
2022-10-15T22:51:58.415Z,3.65
2022-10-15T22:54:25.082Z,2.85
2022-10-15T22:56:52.050Z,2.58
2022-10-15T22:59:19.406Z,3.00
2022-10-15T23:01:46.140Z,3.25
2022-10-15T23:04:14.391Z,2.65
2022-10-15T23:06:41.048Z,3.17
2022-10-15T23:09:08.356Z,2.95
2022-10-15T23:11:40.149Z,2.67
2022-10-15T23:14:09.753Z,2.55
2022-10-15T23:16:40.481Z,2.38
2022-10-15T23:19:12.120Z,2.97
2022-10-15T23:21:45.836Z,2.90
2022-10-15T23:24:13.317Z,2.33
2022-10-15T23:26:41.157Z,3.15
2022-10-15T23:29:11.838Z,3.20
2022-10-15T23:31:38.396Z,3.53
2022-10-15T23:34:05.564Z,2.92
2022-10-15T23:36:32.957Z,3.60
2022-10-15T23:39:04.649Z,3.58
2022-10-15T23:41:32.055Z,2.75
2022-10-15T23:43:59.356Z,3.20
2022-10-15T23:46:26.079Z,4.03
2022-10-15T23:48:52.785Z,3.60
2022-10-15T23:51:25.050Z,3.70
2022-10-15T23:53:52.940Z,2.70
2022-10-15T23:56:20.043Z,3.15
2022-10-15T23:58:51.255Z,3.88
